createdAt,value
2023-04-20T00:01:24.791Z,33.20
2023-04-20T00:03:52.296Z,37.17
2023-04-20T00:06:21.717Z,35.13
2023-04-20T00:08:48.659Z,40.75
2023-04-20T00:11:15.555Z,36.67
2023-04-20T00:13:42.834Z,35.47
2023-04-20T00:16:09.555Z,44.08
2023-04-20T00:18:36.320Z,43.33
2023-04-20T00:21:03.190Z,40.90
2023-04-20T00:23:29.946Z,38.72
2023-04-20T00:25:56.653Z,37.25
2023-04-20T00:28:23.541Z,37.85
2023-04-20T00:30:50.368Z,39.05
2023-04-20T00:33:17.147Z,43.17
2023-04-20T00:35:43.868Z,39.25
2023-04-20T00:38:10.555Z,36.08
2023-04-20T00:40:37.284Z,37.33
2023-04-20T00:43:14.573Z,32.85
2023-04-20T00:45:41.408Z,31.40
2023-04-20T00:48:08.246Z,28.17
2023-04-20T00:50:35.906Z,37.22
2023-04-20T00:53:03.226Z,28.77
2023-04-20T00:55:30.822Z,30.17
2023-04-20T00:57:58.366Z,27.55
2023-04-20T01:00:26.115Z,29.55
2023-04-20T01:02:52.907Z,25.83
2023-04-20T01:05:20.465Z,23.23
2023-04-20T01:07:47.176Z,25.83
2023-04-20T01:10:13.985Z,21.13
2023-04-20T01:12:40.891Z,22.70
2023-04-20T01:15:08.197Z,23.52
2023-04-20T01:17:39.768Z,21.00
2023-04-20T01:20:09.205Z,19.42
2023-04-20T01:22:50.911Z,21.45
2023-04-20T01:25:18.629Z,20.65
2023-04-20T01:27:45.499Z,18.08
2023-04-20T01:30:12.804Z,21.52
2023-04-20T01:32:40.103Z,19.40
2023-04-20T01:35:08.424Z,21.13
2023-04-20T01:37:35.447Z,21.67
2023-04-20T01:40:03.779Z,16.63
2023-04-20T01:42:30.624Z,17.60
2023-04-20T01:44:57.418Z,16.08
2023-04-20T01:47:24.433Z,22.52
2023-04-20T01:49:51.161Z,16.50
2023-04-20T01:52:17.882Z,14.50
2023-04-20T01:54:44.863Z,13.60
2023-04-20T01:57:11.885Z,15.25
2023-04-20T01:59:38.610Z,13.65
2023-04-20T02:02:05.437Z,14.75
2023-04-20T02:04:32.234Z,14.20
2023-04-20T02:06:58.999Z,13.20
2023-04-20T02:09:25.787Z,13.02
2023-04-20T02:11:52.533Z,13.18
2023-04-20T02:14:19.284Z,15.60
2023-04-20T02:16:46.873Z,12.70
2023-04-20T02:19:13.650Z,11.02
2023-04-20T02:21:41.077Z,13.25
2023-04-20T02:24:07.993Z,12.32
2023-04-20T02:26:34.717Z,12.35
2023-04-20T02:29:01.424Z,12.13
2023-04-20T02:31:28.166Z,11.13
2023-04-20T02:33:55.023Z,11.55
2023-04-20T02:36:21.733Z,9.43
2023-04-20T02:38:48.550Z,9.75
2023-04-20T02:41:15.311Z,9.40
2023-04-20T02:43:42.020Z,10.48
2023-04-20T02:46:08.836Z,10.95
2023-04-20T02:48:35.629Z,11.82
2023-04-20T02:51:02.388Z,10.63
2023-04-20T02:53:29.145Z,12.93
2023-04-20T02:55:55.853Z,11.35
2023-04-20T02:58:22.586Z,12.25
2023-04-20T03:00:49.345Z,12.65
2023-04-20T03:03:16.271Z,11.85
2023-04-20T03:05:43.906Z,11.15
2023-04-20T03:08:10.663Z,12.30
2023-04-20T03:10:37.393Z,10.68
2023-04-20T03:13:04.099Z,12.73
2023-04-20T03:15:30.804Z,13.85
2023-04-20T03:17:57.573Z,13.88
2023-04-20T03:20:24.867Z,12.73
2023-04-20T03:22:51.610Z,12.63
2023-04-20T03:25:18.646Z,12.18
2023-04-20T03:27:47.045Z,12.95
2023-04-20T03:30:14.531Z,13.07
2023-04-20T03:32:42.306Z,14.20
2023-04-20T03:35:09.521Z,13.00
2023-04-20T03:37:37.547Z,15.23
2023-04-20T03:40:06.115Z,14.43
2023-04-20T03:42:32.954Z,13.10
2023-04-20T03:44:59.703Z,13.88
2023-04-20T03:47:26.418Z,13.45
2023-04-20T03:49:53.132Z,15.23
2023-04-20T03:52:19.974Z,17.40
2023-04-20T03:54:46.722Z,14.02
2023-04-20T03:57:13.534Z,13.90
2023-04-20T03:59:40.415Z,14.85
2023-04-20T04:02:07.599Z,15.40
2023-04-20T04:04:34.485Z,16.52
2023-04-20T04:07:01.324Z,16.98
2023-04-20T04:09:28.051Z,15.07
2023-04-20T04:11:54.772Z,14.77
2023-04-20T04:14:21.469Z,17.42
2023-04-20T04:16:48.216Z,15.02
2023-04-20T04:19:15.142Z,12.80
2023-04-20T04:21:41.927Z,11.90
2023-04-20T04:24:09.467Z,12.45
2023-04-20T04:26:36.263Z,12.38
2023-04-20T04:29:04.424Z,11.82
2023-04-20T04:31:32.815Z,12.27
2023-04-20T04:33:59.713Z,10.98
2023-04-20T04:36:27.030Z,12.60
2023-04-20T04:38:53.844Z,13.82
2023-04-20T04:41:21.515Z,13.02
2023-04-20T04:43:48.206Z,13.05
2023-04-20T04:46:14.958Z,12.30
2023-04-20T04:48:42.358Z,14.25
2023-04-20T04:51:09.648Z,13.85
2023-04-20T04:53:36.999Z,13.38
2023-04-20T04:56:04.941Z,11.80
2023-04-20T04:58:32.039Z,14.50
2023-04-20T05:00:58.779Z,16.42
2023-04-20T05:03:25.942Z,13.10
2023-04-20T05:05:52.913Z,12.60
2023-04-20T05:08:21.395Z,13.77
2023-04-20T05:10:48.147Z,12.73
2023-04-20T05:13:14.860Z,13.30
2023-04-20T05:15:43.751Z,12.52
2023-04-20T05:18:11.047Z,11.35
2023-04-20T05:20:38.010Z,11.73
2023-04-20T05:23:04.714Z,10.25
2023-04-20T05:25:32.868Z,8.57
2023-04-20T05:27:59.791Z,7.72
2023-04-20T05:30:26.660Z,7.80
2023-04-20T05:32:53.493Z,7.70
2023-04-20T05:35:21.340Z,8.18
2023-04-20T05:37:48.521Z,7.80
2023-04-20T05:40:15.840Z,9.15
2023-04-20T05:42:42.721Z,9.20
2023-04-20T05:45:10.187Z,9.30
2023-04-20T05:47:36.957Z,8.25
2023-04-20T05:50:04.709Z,9.77
2023-04-20T05:52:31.428Z,10.43
2023-04-20T05:54:59.434Z,8.77
2023-04-20T05:57:26.212Z,9.80
2023-04-20T05:59:55.344Z,11.93
2023-04-20T06:02:22.258Z,12.75
2023-04-20T06:04:49.239Z,10.02
2023-04-20T06:07:16.118Z,7.85
2023-04-20T06:09:42.890Z,10.00
2023-04-20T06:12:09.816Z,9.50
2023-04-20T06:14:36.537Z,8.60
2023-04-20T06:17:03.333Z,10.63
2023-04-20T06:19:30.028Z,9.95
2023-04-20T06:22:00.195Z,9.05
2023-04-20T06:24:27.990Z,9.25
2023-04-20T06:26:54.970Z,9.68
2023-04-20T06:29:21.746Z,9.00
2023-04-20T06:31:48.622Z,9.57
2023-04-20T06:34:16.217Z,7.65
2023-04-20T06:36:43.827Z,7.60
2023-04-20T06:39:13.419Z,9.27
2023-04-20T06:41:40.105Z,8.82
2023-04-20T06:44:06.884Z,8.15
2023-04-20T06:46:33.700Z,9.88
2023-04-20T06:49:00.616Z,8.95
2023-04-20T06:51:29.121Z,8.70
2023-04-20T06:53:56.399Z,7.57
2023-04-20T06:56:23.155Z,7.15
2023-04-20T06:58:50.179Z,7.85
2023-04-20T07:01:16.973Z,7.47
2023-04-20T07:03:43.953Z,8.27
2023-04-20T07:06:11.740Z,9.45
2023-04-20T07:08:39.421Z,8.57
2023-04-20T07:11:06.229Z,9.35
2023-04-20T07:13:33.902Z,11.07
2023-04-20T07:16:00.970Z,10.68
2023-04-20T07:18:27.726Z,10.25
2023-04-20T07:20:54.553Z,9.52
2023-04-20T07:23:21.416Z,8.73
2023-04-20T07:25:48.219Z,7.88
2023-04-20T07:28:14.937Z,9.60
2023-04-20T07:30:41.637Z,9.70
2023-04-20T07:33:09.176Z,7.40
2023-04-20T07:35:36.082Z,8.07
2023-04-20T07:38:02.818Z,7.95
2023-04-20T07:40:29.605Z,8.57
2023-04-20T07:42:56.308Z,8.20
2023-04-20T07:45:24.160Z,8.48
2023-04-20T07:47:52.327Z,11.05
2023-04-20T07:50:19.232Z,8.43
2023-04-20T07:52:45.959Z,10.65
2023-04-20T07:55:14.269Z,9.23
2023-04-20T07:57:42.436Z,9.60
2023-04-20T08:00:10.168Z,9.68
2023-04-20T08:02:37.095Z,12.10
2023-04-20T08:05:04.442Z,11.15
2023-04-20T08:07:31.704Z,12.05
2023-04-20T08:09:58.594Z,11.35
2023-04-20T08:12:25.349Z,10.35
2023-04-20T08:14:52.096Z,10.65
2023-04-20T08:17:18.816Z,10.65
2023-04-20T08:19:46.172Z,10.77
2023-04-20T08:22:13.140Z,9.82
2023-04-20T08:24:39.860Z,10.80
2023-04-20T08:27:09.023Z,11.27
2023-04-20T08:29:36.664Z,11.60
2023-04-20T08:32:04.050Z,12.55
2023-04-20T08:34:30.817Z,12.52
2023-04-20T08:36:57.570Z,12.88
2023-04-20T08:39:24.472Z,13.73
2023-04-20T08:41:55.513Z,12.65
2023-04-20T08:44:22.952Z,11.88
2023-04-20T08:46:50.861Z,12.32
2023-04-20T08:49:19.572Z,11.38
2023-04-20T08:51:47.621Z,10.98
2023-04-20T08:54:14.866Z,10.38
2023-04-20T08:56:43.891Z,11.15
2023-04-20T08:59:10.849Z,12.43
2023-04-20T09:01:41.766Z,11.27
2023-04-20T09:04:26.828Z,11.00
2023-04-20T09:06:55.645Z,11.60
2023-04-20T09:09:24.045Z,12.38
2023-04-20T09:12:21.606Z,11.73
2023-04-20T09:14:49.517Z,11.30
2023-04-20T09:17:17.895Z,12.15
2023-04-20T09:19:45.916Z,14.60
2023-04-20T09:22:12.803Z,12.75
2023-04-20T09:24:41.117Z,11.82
2023-04-20T09:27:18.354Z,11.07
2023-04-20T09:29:56.586Z,9.57
2023-04-20T09:32:24.222Z,9.77
2023-04-20T09:34:51.131Z,10.07
2023-04-20T09:37:18.015Z,10.20
2023-04-20T09:39:45.926Z,10.55
2023-04-20T09:42:14.121Z,11.50
2023-04-20T09:44:41.278Z,10.48
2023-04-20T09:47:08.740Z,8.90
2023-04-20T09:49:35.644Z,8.57
2023-04-20T09:52:04.144Z,9.55
2023-04-20T09:54:31.653Z,10.02
2023-04-20T09:56:59.921Z,9.23
2023-04-20T09:59:27.458Z,10.02
2023-04-20T10:01:54.432Z,9.82
2023-04-20T10:04:21.427Z,9.18
2023-04-20T10:06:57.904Z,8.43
2023-04-20T10:09:26.181Z,7.20
2023-04-20T10:11:55.172Z,9.00
2023-04-20T10:14:24.810Z,7.78
2023-04-20T10:17:06.577Z,7.13
2023-04-20T10:19:41.177Z,7.88
2023-04-20T10:22:10.377Z,7.75
2023-04-20T10:24:40.632Z,7.95
2023-04-20T10:29:46.694Z,7.63
2023-04-20T10:32:28.073Z,7.20
2023-04-20T10:35:03.113Z,7.55
2023-04-20T10:37:30.133Z,8.48
2023-04-20T10:39:56.940Z,9.50
2023-04-20T10:42:26.506Z,8.73
2023-04-20T10:44:54.374Z,9.02
2023-04-20T10:47:29.617Z,9.73
2023-04-20T10:50:15.428Z,8.57
2023-04-20T10:52:43.794Z,8.57
2023-04-20T10:55:28.714Z,8.93
2023-04-20T10:57:55.421Z,9.55
2023-04-20T11:00:27.975Z,10.85
2023-04-20T11:02:58.744Z,11.23
2023-04-20T11:05:27.375Z,10.77
2023-04-20T11:07:55.457Z,9.35
2023-04-20T11:10:43.579Z,10.65
2023-04-20T11:13:25.255Z,9.80
2023-04-20T11:15:52.110Z,10.02
2023-04-20T11:18:19.309Z,9.18
2023-04-20T11:20:53.758Z,8.70
2023-04-20T11:23:25.440Z,10.30
2023-04-20T11:25:52.876Z,8.60
2023-04-20T11:28:19.658Z,8.50
2023-04-20T11:30:46.825Z,8.20
2023-04-20T11:33:14.318Z,10.13
2023-04-20T11:35:43.018Z,10.38
2023-04-20T11:38:10.082Z,9.38
2023-04-20T11:40:36.822Z,8.68
2023-04-20T11:43:04.722Z,8.60
2023-04-20T11:45:36.264Z,8.15
2023-04-20T11:48:04.714Z,8.65
2023-04-20T11:50:31.833Z,8.85
2023-04-20T11:52:58.708Z,10.00
2023-04-20T11:55:25.498Z,10.60
2023-04-20T11:57:52.190Z,7.80
2023-04-20T12:00:19.582Z,10.40
2023-04-20T12:02:46.500Z,7.50
2023-04-20T12:05:14.288Z,7.10
2023-04-20T12:07:41.266Z,6.38
2023-04-20T12:10:08.730Z,7.38
2023-04-20T12:12:35.556Z,7.57
2023-04-20T12:15:02.342Z,6.00
2023-04-20T12:17:29.107Z,9.43
2023-04-20T12:19:57.856Z,6.70
2023-04-20T12:22:24.667Z,7.20
2023-04-20T12:24:51.399Z,7.15
2023-04-20T12:27:18.235Z,6.70
2023-04-20T12:29:44.898Z,6.20
2023-04-20T12:32:11.833Z,6.45
2023-04-20T12:34:38.573Z,6.05
2023-04-20T12:37:05.363Z,6.78
2023-04-20T12:39:32.066Z,6.95
2023-04-20T12:41:58.822Z,6.18
2023-04-20T12:44:25.600Z,6.32
2023-04-20T12:46:52.420Z,6.38
2023-04-20T12:49:19.445Z,6.80
2023-04-20T12:51:46.349Z,6.95
2023-04-20T12:54:13.060Z,7.97
2023-04-20T12:56:39.746Z,7.25
2023-04-20T12:59:06.588Z,7.00
2023-04-20T13:01:33.481Z,7.22
2023-04-20T13:04:00.545Z,7.85
2023-04-20T13:06:27.989Z,7.32
2023-04-20T13:08:54.729Z,7.75
2023-04-20T13:11:22.034Z,8.13
2023-04-20T13:13:48.796Z,8.52
2023-04-20T13:16:15.712Z,10.57
2023-04-20T13:18:42.583Z,9.23
2023-04-20T13:21:09.401Z,8.18
2023-04-20T13:23:38.188Z,11.25
2023-04-20T13:26:06.527Z,8.23
2023-04-20T13:28:33.402Z,9.35
2023-04-20T13:31:00.175Z,8.40
2023-04-20T13:33:26.944Z,8.90
2023-04-20T13:35:53.684Z,8.35
2023-04-20T13:38:20.499Z,8.30
2023-04-20T13:40:48.215Z,8.68
2023-04-20T13:43:15.079Z,8.55
2023-04-20T13:45:42.051Z,8.60
2023-04-20T13:48:09.125Z,8.60
2023-04-20T13:50:35.899Z,7.75
2023-04-20T13:53:03.175Z,8.70
2023-04-20T13:55:30.802Z,8.50
2023-04-20T13:57:57.552Z,8.60
2023-04-20T14:00:26.050Z,8.38
2023-04-20T14:02:53.098Z,9.35
2023-04-20T14:05:20.047Z,10.00
2023-04-20T14:07:46.812Z,10.60
2023-04-20T14:10:13.612Z,9.90
2023-04-20T14:12:40.445Z,10.55
2023-04-20T14:15:07.589Z,10.65
2023-04-20T14:17:34.317Z,10.32
2023-04-20T14:20:01.589Z,12.32
2023-04-20T14:22:34.240Z,10.02
2023-04-20T14:25:01.033Z,11.57
2023-04-20T14:27:27.767Z,12.40
2023-04-20T14:29:54.612Z,12.13
2023-04-20T14:32:21.459Z,14.98
2023-04-20T14:34:48.339Z,13.80
2023-04-20T14:37:15.094Z,16.80
2023-04-20T14:39:41.797Z,13.70
2023-04-20T14:42:08.549Z,14.70
2023-04-20T14:44:35.346Z,15.73
2023-04-20T14:47:02.994Z,14.93
2023-04-20T14:49:30.006Z,14.75
2023-04-20T14:51:56.750Z,17.00
2023-04-20T14:54:23.502Z,15.73
2023-04-20T14:56:50.236Z,16.05
2023-04-20T14:59:17.003Z,17.80
2023-04-20T15:01:58.675Z,16.70
2023-04-20T15:04:29.362Z,19.88
2023-04-20T15:06:56.226Z,19.13
2023-04-20T15:09:22.953Z,16.15
2023-04-20T15:11:49.772Z,17.30
2023-04-20T15:14:16.974Z,16.75
2023-04-20T15:16:43.875Z,18.83
2023-04-20T15:19:10.613Z,18.45
2023-04-20T15:21:37.335Z,18.00
2023-04-20T15:24:04.451Z,18.90
2023-04-20T15:26:31.209Z,18.85
2023-04-20T15:28:57.999Z,17.98
2023-04-20T15:31:24.821Z,19.13
2023-04-20T15:33:51.739Z,17.48
2023-04-20T15:36:19.681Z,18.05
2023-04-20T15:38:46.755Z,16.95
2023-04-20T15:41:13.541Z,17.75
2023-04-20T15:43:40.289Z,18.92
2023-04-20T15:46:07.141Z,22.30
2023-04-20T15:48:34.006Z,17.90
2023-04-20T15:51:00.885Z,18.35
2023-04-20T15:53:27.641Z,17.38
2023-04-20T15:55:54.325Z,16.58
2023-04-20T15:58:21.319Z,18.15
2023-04-20T16:00:48.141Z,21.92
2023-04-20T16:03:15.066Z,19.63
2023-04-20T16:05:41.977Z,17.95
2023-04-20T16:08:08.735Z,17.17
2023-04-20T16:10:35.586Z,17.05
2023-04-20T16:13:03.569Z,18.08
2023-04-20T16:15:31.007Z,17.95
2023-04-20T16:20:26.728Z,17.00
2023-04-20T16:22:53.510Z,18.27
2023-04-20T16:25:23.074Z,16.60
2023-04-20T16:27:51.513Z,16.50
2023-04-20T16:30:18.567Z,17.30
2023-04-20T16:32:45.763Z,17.63
2023-04-20T16:35:12.627Z,18.42
2023-04-20T16:37:39.409Z,17.80
2023-04-20T16:40:08.213Z,18.70
2023-04-20T16:42:35.441Z,18.70
2023-04-20T16:45:02.279Z,19.60
2023-04-20T16:47:29.037Z,20.45
2023-04-20T16:49:55.930Z,22.00
2023-04-20T16:52:22.654Z,18.85
2023-04-20T16:54:49.364Z,19.67
2023-04-20T16:57:16.442Z,19.55
2023-04-20T16:59:45.290Z,21.08
2023-04-20T17:02:12.730Z,20.38
2023-04-20T17:04:39.737Z,21.05
2023-04-20T17:07:06.651Z,19.63
2023-04-20T17:09:33.389Z,20.70
2023-04-20T17:12:01.206Z,17.33
2023-04-20T17:14:27.968Z,18.80
2023-04-20T17:16:56.520Z,18.92
2023-04-20T17:19:23.513Z,20.60
2023-04-20T17:21:50.334Z,18.15
2023-04-20T17:24:17.654Z,19.50
2023-04-20T17:26:46.397Z,22.50
2023-04-20T17:29:13.660Z,17.75
2023-04-20T17:31:40.519Z,18.42
2023-04-20T17:34:07.463Z,16.58
2023-04-20T17:36:34.320Z,13.63
2023-04-20T17:39:01.169Z,14.10
2023-04-20T17:41:28.142Z,14.52
2023-04-20T17:43:54.897Z,17.13
2023-04-20T17:46:22.882Z,15.77
2023-04-20T17:48:49.648Z,14.77
2023-04-20T17:51:16.438Z,17.25
2023-04-20T17:53:43.194Z,14.25
2023-04-20T17:56:10.821Z,15.07
2023-04-20T17:58:37.611Z,15.48
2023-04-20T18:01:04.849Z,14.82
2023-04-20T18:03:31.833Z,14.10
2023-04-20T18:05:58.666Z,12.80
2023-04-20T18:08:25.770Z,13.85
2023-04-20T18:10:52.525Z,12.90
2023-04-20T18:13:19.290Z,15.45
2023-04-20T18:15:46.096Z,14.00
2023-04-20T18:18:12.907Z,15.13
2023-04-20T18:20:40.402Z,13.90
2023-04-20T18:23:07.462Z,18.00
2023-04-20T18:25:34.291Z,14.02
2023-04-20T18:28:01.009Z,14.48
2023-04-20T18:30:27.737Z,15.13
2023-04-20T18:32:54.638Z,14.48
2023-04-20T18:35:21.414Z,14.65
2023-04-20T18:37:48.103Z,15.73
2023-04-20T18:40:16.456Z,16.65
2023-04-20T18:42:43.362Z,15.82
2023-04-20T18:45:12.247Z,19.33
2023-04-20T18:47:39.419Z,16.95
2023-04-20T18:50:07.012Z,14.90
2023-04-20T18:52:34.277Z,16.48
2023-04-20T18:55:01.654Z,16.25
2023-04-20T18:57:29.048Z,15.82
2023-04-20T18:59:56.423Z,17.00
2023-04-20T19:02:23.458Z,18.65
2023-04-20T19:04:51.017Z,18.02
2023-04-20T19:07:18.267Z,17.52
2023-04-20T19:09:45.282Z,15.55
2023-04-20T19:12:12.127Z,16.85
2023-04-20T19:14:38.843Z,16.00
2023-04-20T19:17:07.100Z,18.48
2023-04-20T19:19:34.242Z,15.32
2023-04-20T19:22:01.699Z,16.90
2023-04-20T19:24:28.435Z,16.20
2023-04-20T19:26:55.196Z,17.58
2023-04-20T19:29:21.899Z,16.50
2023-04-20T19:31:48.740Z,17.30
2023-04-20T19:34:16.068Z,15.48
2023-04-20T19:36:42.965Z,16.33
2023-04-20T19:39:10.097Z,15.95
2023-04-20T19:41:38.182Z,15.35
2023-04-20T19:44:06.257Z,17.92
2023-04-20T19:46:33.907Z,18.20
2023-04-20T19:49:01.442Z,14.60
2023-04-20T19:51:28.299Z,17.35
2023-04-20T19:53:56.651Z,17.90
2023-04-20T19:56:23.567Z,17.40
2023-04-20T19:58:50.341Z,17.35
2023-04-20T20:01:17.324Z,17.85
2023-04-20T20:03:44.316Z,15.75
2023-04-20T20:06:11.399Z,15.20
2023-04-20T20:08:38.269Z,17.60
2023-04-20T20:11:05.158Z,15.35
2023-04-20T20:13:32.062Z,19.30
2023-04-20T20:15:59.145Z,15.60
2023-04-20T20:18:26.502Z,15.90
2023-04-20T20:20:53.266Z,15.40
2023-04-20T20:23:20.161Z,15.23
2023-04-20T20:25:47.236Z,15.88
2023-04-20T20:28:14.711Z,16.50
2023-04-20T20:30:45.020Z,15.60
2023-04-20T20:35:39.092Z,16.73
2023-04-20T20:38:06.295Z,16.25
2023-04-20T20:40:34.359Z,17.65
2023-04-20T20:43:01.618Z,15.13
2023-04-20T20:45:28.955Z,14.13
2023-04-20T20:47:56.036Z,16.38
2023-04-20T20:50:23.365Z,15.77
2023-04-20T20:52:50.362Z,16.75
2023-04-20T20:55:17.078Z,15.15
2023-04-20T20:57:43.902Z,18.05
2023-04-20T21:00:11.991Z,16.73
2023-04-20T21:02:38.986Z,16.50
2023-04-20T21:05:06.404Z,16.08
2023-04-20T21:07:33.132Z,15.05
2023-04-20T21:10:00.122Z,15.73
2023-04-20T21:12:27.000Z,16.60
2023-04-20T21:14:53.856Z,16.73
2023-04-20T21:17:20.666Z,16.27
2023-04-20T21:19:47.379Z,16.42
2023-04-20T21:22:14.241Z,23.50
2023-04-20T21:24:41.159Z,18.83
2023-04-20T21:27:08.099Z,17.48
2023-04-20T21:29:34.819Z,17.30
2023-04-20T21:32:01.721Z,16.77
2023-04-20T21:34:28.545Z,16.63
2023-04-20T21:36:55.451Z,15.70
2023-04-20T21:39:22.180Z,17.70
2023-04-20T21:41:48.887Z,16.38
2023-04-20T21:44:15.646Z,17.30
2023-04-20T21:46:42.494Z,16.95
2023-04-20T21:49:09.278Z,17.92
2023-04-20T21:51:35.989Z,17.73
2023-04-20T21:54:02.698Z,16.15
2023-04-20T21:56:29.364Z,14.43
2023-04-20T21:58:56.116Z,16.25
2023-04-20T22:01:22.832Z,18.15
2023-04-20T22:03:49.723Z,18.27
2023-04-20T22:06:42.075Z,18.30
2023-04-20T22:09:08.910Z,21.35
2023-04-20T22:11:36.645Z,19.17
2023-04-20T22:14:04.442Z,20.25
2023-04-20T22:16:33.888Z,20.92
2023-04-20T22:19:01.352Z,21.27
2023-04-20T22:21:28.498Z,19.38
2023-04-20T22:23:55.366Z,19.27
2023-04-20T22:26:22.119Z,19.77
2023-04-20T22:28:48.916Z,21.10
2023-04-20T22:31:16.261Z,20.77
2023-04-20T22:33:43.017Z,18.45
2023-04-20T22:36:09.961Z,20.58
2023-04-20T22:38:37.637Z,18.38
2023-04-20T22:41:04.703Z,18.92
2023-04-20T22:43:31.454Z,19.42
2023-04-20T22:45:58.543Z,21.23
2023-04-20T22:48:25.356Z,20.17
2023-04-20T22:50:52.463Z,20.00
2023-04-20T22:53:19.452Z,16.85
2023-04-20T22:55:46.252Z,19.33
2023-04-20T22:58:12.990Z,16.27
2023-04-20T23:00:39.837Z,16.13
2023-04-20T23:03:06.812Z,17.50
2023-04-20T23:05:33.877Z,16.85
2023-04-20T23:08:00.680Z,15.82
2023-04-20T23:10:29.539Z,15.80
2023-04-20T23:12:56.266Z,19.10
2023-04-20T23:15:23.104Z,15.85
2023-04-20T23:17:50.706Z,15.23
2023-04-20T23:20:17.547Z,15.60
2023-04-20T23:22:44.266Z,16.02
2023-04-20T23:25:11.321Z,15.55
2023-04-20T23:27:38.191Z,16.98
2023-04-20T23:30:06.534Z,19.48
2023-04-20T23:32:33.378Z,20.42
2023-04-20T23:35:00.242Z,17.50
2023-04-20T23:37:27.010Z,16.83
2023-04-20T23:39:53.714Z,18.70
2023-04-20T23:42:20.443Z,17.42
2023-04-20T23:44:47.129Z,20.75
2023-04-20T23:47:15.475Z,16.75
2023-04-20T23:49:42.169Z,18.73
2023-04-20T23:52:08.913Z,22.75
2023-04-20T23:54:35.663Z,19.50
2023-04-20T23:57:03.206Z,18.25
2023-04-20T23:59:29.915Z,19.42
